Bemiss, Georgia
Current Conditions -  °F | °C
As of 1:53 PM on Thursday 30 Oct 2014 (Local Time) from KVLD Reporting Station
Overcast Overcast  
Wind Chill: 67°   Ceiling: 4600
Heat Index: 67°   Visibility: 10mi
Dew Point: 43°   Wind: 3mph
Humidity: 42%   Direction: NA
Pressure: 29.98"   Gusts: NA
Location:  30.8853°N, 83.3291°W
Report Text: KVLD 301753Z VRB03KT 10SM OVC046 19/06 A2998 RMK AO2 SLP159 60000 T01940061 10206 20161 58017
Loading
Personal Weather Stations






























Interactive Weather Map
Tropical Storm Tracking
New forecast layout! Learn more

10-Day Weather Forecast

Advertisements
Track Severe Weather on mobile